createdAt,value
2023-03-25T00:01:20.337Z,97913.46
2023-03-25T00:06:28.117Z,97913.52
2023-03-25T00:11:31.699Z,97920.42
2023-03-25T00:16:34.944Z,97924.45
2023-03-25T00:21:40.058Z,97922.59
2023-03-25T00:26:48.869Z,97917.36
2023-03-25T00:31:52.803Z,97905.35
2023-03-25T00:36:56.790Z,97897.42
2023-03-25T00:42:02.466Z,97895.95
2023-03-25T00:47:05.865Z,97888.95
2023-03-25T00:52:09.655Z,97880.69
2023-03-25T00:57:13.580Z,97886.25
2023-03-25T01:02:19.169Z,97887.81
2023-03-25T01:07:23.362Z,97888.36
2023-03-25T01:12:27.415Z,97893.92
2023-03-25T01:17:32.363Z,97888.80
2023-03-25T01:22:36.199Z,97881.18
2023-03-25T01:27:39.836Z,97873.94
2023-03-25T01:32:43.297Z,97876.81
2023-03-25T01:37:47.129Z,97879.84
2023-03-25T01:42:50.899Z,97880.85
2023-03-25T01:48:26.298Z,97874.17
2023-03-25T01:53:32.460Z,97874.11
2023-03-25T01:58:36.552Z,97866.77
2023-03-25T02:03:46.350Z,97872.74
2023-03-25T02:08:53.005Z,97862.48
2023-03-25T02:14:03.007Z,97860.61
2023-03-25T02:19:07.111Z,97865.17
2023-03-25T02:24:20.219Z,97860.32
2023-03-25T02:29:39.649Z,97867.52
2023-03-25T02:35:21.693Z,97871.81
2023-03-25T02:40:55.925Z,97875.77
2023-03-25T02:46:04.179Z,97878.20
2023-03-25T02:51:17.991Z,97879.33
2023-03-25T02:56:44.910Z,97879.32
2023-03-25T03:01:50.825Z,97887.85
2023-03-25T03:06:58.209Z,97891.35
2023-03-25T03:12:43.045Z,97888.70
2023-03-25T03:17:58.442Z,97886.46
2023-03-25T03:23:21.322Z,97889.14
2023-03-25T03:28:34.832Z,97895.45
2023-03-25T03:33:50.958Z,97903.95
2023-03-25T03:39:02.045Z,97902.14
2023-03-25T03:44:11.255Z,97916.66
2023-03-25T03:49:21.330Z,97920.88
2023-03-25T03:54:33.490Z,97920.91
2023-03-25T03:59:47.958Z,97921.17
2023-03-25T04:04:54.083Z,97926.39
2023-03-25T04:10:15.040Z,97934.50
2023-03-25T04:15:19.305Z,97944.62
2023-03-25T04:20:30.041Z,97949.85
2023-03-25T04:31:56.452Z,97963.67
2023-03-25T04:37:00.117Z,97962.79
2023-03-25T04:42:03.888Z,97957.02
2023-03-25T04:47:15.181Z,97960.80
2023-03-25T04:52:18.950Z,97964.23
2023-03-25T04:57:22.472Z,97966.58
2023-03-25T05:02:25.794Z,97968.00
2023-03-25T05:07:30.228Z,97980.68
2023-03-25T05:12:34.083Z,97982.93
2023-03-25T05:18:14.357Z,97992.00
2023-03-25T05:23:18.290Z,98004.09
2023-03-25T05:28:21.713Z,98005.00
2023-03-25T05:33:25.254Z,98008.06
2023-03-25T05:38:28.730Z,98004.04
2023-03-25T05:43:35.934Z,98006.66
2023-03-25T05:48:41.702Z,98004.59
2023-03-25T05:53:45.807Z,98014.00
2023-03-25T05:58:51.189Z,98017.54
2023-03-25T06:03:54.614Z,98022.86
2023-03-25T06:08:59.004Z,98026.83
2023-03-25T06:14:02.954Z,98024.36
2023-03-25T06:19:09.702Z,98022.10
2023-03-25T06:24:14.155Z,98032.66
2023-03-25T06:29:17.589Z,98040.69
2023-03-25T06:34:22.619Z,98046.21
2023-03-25T06:39:33.943Z,98042.46
2023-03-25T06:44:39.916Z,98032.52
2023-03-25T06:50:11.539Z,98043.65
2023-03-25T06:55:16.348Z,98050.10
2023-03-25T07:00:23.776Z,98056.95
2023-03-25T07:05:27.908Z,98063.70
2023-03-25T07:10:32.662Z,98057.48
2023-03-25T07:15:36.406Z,98049.86
2023-03-25T07:20:39.841Z,98051.50
2023-03-25T07:25:50.043Z,98057.33
2023-03-25T07:30:53.523Z,98054.93
2023-03-25T07:35:57.073Z,98049.81
2023-03-25T07:41:04.644Z,98045.12
2023-03-25T07:46:08.004Z,98046.70
2023-03-25T07:51:15.002Z,98047.82
2023-03-25T07:56:18.269Z,98042.98
2023-03-25T08:01:22.090Z,98031.29
2023-03-25T08:06:25.660Z,98027.11
2023-03-25T08:11:28.994Z,98032.04
2023-03-25T08:16:32.404Z,98029.94
2023-03-25T08:21:36.471Z,98036.11
2023-03-25T08:26:39.867Z,98044.45
2023-03-25T08:31:47.145Z,98044.95
2023-03-25T08:36:50.893Z,98044.45
2023-03-25T08:41:54.907Z,98039.27
2023-03-25T08:46:58.319Z,98046.33
2023-03-25T08:52:02.196Z,98046.42
2023-03-25T08:57:06.323Z,98036.60
2023-03-25T09:02:12.366Z,98025.88
2023-03-25T09:07:16.173Z,98019.45
2023-03-25T09:12:19.762Z,98022.66
2023-03-25T09:17:23.283Z,98018.83
2023-03-25T09:22:26.858Z,98003.73
2023-03-25T09:27:30.308Z,97999.58
2023-03-25T09:32:34.613Z,97988.91
2023-03-25T09:37:38.094Z,97980.21
2023-03-25T09:43:06.558Z,97974.52
2023-03-25T09:48:33.612Z,97971.05
2023-03-25T09:53:40.868Z,97968.00
2023-03-25T09:58:51.068Z,97949.27
2023-03-25T10:04:17.532Z,97938.73
2023-03-25T10:09:39.042Z,97937.30
2023-03-25T10:14:56.881Z,97934.47
2023-03-25T10:20:36.938Z,97929.19
2023-03-25T10:25:46.206Z,97919.67
2023-03-25T10:30:53.816Z,97921.23
2023-03-25T10:36:00.372Z,97919.98
2023-03-25T10:41:27.849Z,97921.81
2023-03-25T10:46:47.868Z,97914.02
2023-03-25T10:52:05.017Z,97908.98
2023-03-25T10:57:23.351Z,97898.18
2023-03-25T11:02:39.821Z,97891.23
2023-03-25T11:13:44.657Z,97855.56
2023-03-25T11:18:49.686Z,97851.91
2023-03-25T11:23:54.606Z,97850.14
2023-03-25T11:29:44.765Z,97849.58
2023-03-25T11:35:21.838Z,97839.35
2023-03-25T11:43:04.701Z,97829.64
2023-03-25T11:48:39.394Z,97828.86
2023-03-25T11:54:09.314Z,97828.80
2023-03-25T11:59:37.064Z,97833.97
2023-03-25T12:05:02.300Z,97862.28
2023-03-25T12:10:10.299Z,97886.01
2023-03-25T12:15:29.758Z,97890.81
2023-03-25T12:21:12.001Z,97879.18
2023-03-25T12:27:16.410Z,97882.02
2023-03-25T12:33:43.112Z,97887.30
2023-03-25T12:45:04.453Z,97874.13
2023-03-25T12:50:14.267Z,97879.96
2023-03-25T12:55:35.983Z,97887.73
2023-03-25T13:01:23.143Z,97888.17
2023-03-25T13:06:35.132Z,97898.23
2023-03-25T13:11:59.266Z,97893.61
2023-03-25T13:17:11.021Z,97887.19
2023-03-25T13:22:20.121Z,97879.45
2023-03-25T13:27:23.869Z,97866.13
2023-03-25T13:32:34.756Z,97869.00
2023-03-25T13:37:53.634Z,97871.75
2023-03-25T13:43:07.045Z,97860.00
2023-03-25T13:48:37.467Z,97856.41
2023-03-25T13:54:25.740Z,97856.89
2023-03-25T13:59:52.222Z,97857.73
2023-03-25T14:05:35.289Z,97852.15
2023-03-25T14:11:33.827Z,97855.36
2023-03-25T14:16:43.258Z,97855.42
2023-03-25T14:21:52.397Z,97853.08
2023-03-25T14:27:06.077Z,97854.70
2023-03-25T14:32:10.011Z,97857.26
2023-03-25T14:37:21.894Z,97851.41
2023-03-25T14:42:29.384Z,97844.61
2023-03-25T14:47:35.767Z,97850.61
2023-03-25T14:52:45.975Z,97851.18
2023-03-25T14:57:52.702Z,97849.68
2023-03-25T15:03:10.860Z,97846.61
2023-03-25T15:08:18.019Z,97850.02
2023-03-25T15:13:27.627Z,97843.38
2023-03-25T15:18:37.406Z,97844.00
2023-03-25T15:24:02.412Z,97844.70
2023-03-25T15:29:32.687Z,97843.94
2023-03-25T15:35:01.045Z,97844.63
2023-03-25T15:43:15.397Z,97848.66
2023-03-25T15:48:46.942Z,97857.35
2023-03-25T15:54:04.185Z,97862.58
2023-03-25T15:59:33.063Z,97867.45
2023-03-25T16:04:42.460Z,97870.88
2023-03-25T16:09:50.072Z,97878.83
2023-03-25T16:14:53.725Z,97882.54
2023-03-25T16:19:58.543Z,97882.56
2023-03-25T16:25:27.313Z,97887.63
2023-03-25T16:30:42.142Z,97892.90
2023-03-25T16:36:10.433Z,97894.88
2023-03-25T16:42:49.472Z,97901.61
2023-03-25T16:47:55.276Z,97903.44
2023-03-25T16:53:03.282Z,97903.84
2023-03-25T16:58:16.710Z,97912.30
2023-03-25T17:03:41.031Z,97910.21
2023-03-25T17:08:48.838Z,97912.61
2023-03-25T17:13:58.446Z,97917.41
2023-03-25T17:19:04.710Z,97924.42
2023-03-25T17:24:24.488Z,97925.81
2023-03-25T17:29:30.598Z,97929.27
2023-03-25T17:34:43.048Z,97945.01
2023-03-25T17:43:09.088Z,97954.61
2023-03-25T17:48:17.706Z,97956.92
2023-03-25T17:53:22.121Z,97971.19
2023-03-25T17:58:26.311Z,97964.11
2023-03-25T19:05:32.085Z,97968.90
2023-03-25T19:10:46.333Z,97974.45
2023-03-25T19:15:50.362Z,97969.99
2023-03-25T19:20:54.691Z,97973.30
2023-03-25T19:26:01.323Z,97976.29
2023-03-25T19:31:06.909Z,97984.50
2023-03-25T19:36:19.186Z,97986.33
2023-03-25T19:42:50.107Z,97987.30
2023-03-25T19:47:54.511Z,97986.02
2023-03-25T19:53:06.315Z,97988.84
2023-03-25T19:58:11.684Z,97987.59
2023-03-25T20:03:22.603Z,97983.29
2023-03-25T20:08:27.242Z,97987.17
2023-03-25T20:13:30.885Z,97994.06
2023-03-25T20:18:34.146Z,97990.83
2023-03-25T20:23:37.840Z,97994.98
2023-03-25T20:28:41.202Z,97986.63
2023-03-25T20:33:45.221Z,97985.42
2023-03-25T20:38:57.178Z,97984.63
2023-03-25T20:44:01.772Z,97986.05
2023-03-25T20:49:09.091Z,97985.84
2023-03-25T20:54:17.376Z,97984.77
2023-03-25T20:59:21.070Z,97982.70
2023-03-25T21:04:25.080Z,97983.50
2023-03-25T21:09:28.670Z,97985.02
2023-03-25T21:14:32.181Z,97988.52
2023-03-25T21:19:35.579Z,97989.00
2023-03-25T21:24:38.900Z,97997.92
2023-03-25T21:29:42.189Z,97998.59
2023-03-25T21:34:45.595Z,97996.02
2023-03-25T21:39:50.588Z,97990.63
2023-03-25T21:44:53.759Z,97992.71
2023-03-25T21:49:57.216Z,97995.37
2023-03-25T21:55:01.060Z,97996.23
2023-03-25T22:00:06.112Z,97993.42
2023-03-25T22:05:17.100Z,97994.20
2023-03-25T22:10:20.721Z,97996.84
2023-03-25T22:15:24.110Z,98000.27
2023-03-25T22:20:27.572Z,98003.29
2023-03-25T22:25:31.274Z,98018.80
2023-03-25T22:30:35.527Z,98024.09
2023-03-25T22:35:38.936Z,98028.99
2023-03-25T22:40:45.264Z,98041.23
2023-03-25T22:45:48.842Z,98046.73
2023-03-25T22:50:52.202Z,98048.59
2023-03-25T22:55:56.951Z,98048.69
2023-03-25T23:01:03.149Z,98046.80
2023-03-25T23:06:08.193Z,98042.30
2023-03-25T23:11:24.227Z,98048.05
2023-03-25T23:16:31.037Z,98060.64
2023-03-25T23:21:34.774Z,98060.02
2023-03-25T23:26:40.525Z,98052.09
2023-03-25T23:31:44.689Z,98044.59
2023-03-25T23:36:48.227Z,98048.08
2023-03-25T23:41:52.006Z,98046.02
2023-03-25T23:46:56.138Z,98047.95
2023-03-25T23:52:00.499Z,98053.06
2023-03-25T23:57:04.141Z,98058.09
